createdAt,value
2022-11-30T00:00:56.480Z,5.70
2022-11-30T00:03:25.548Z,5.60
2022-11-30T00:05:54.059Z,5.60
2022-11-30T00:08:22.221Z,5.60
2022-11-30T00:10:50.310Z,5.60
2022-11-30T00:13:19.805Z,5.60
2022-11-30T00:15:47.919Z,5.60
2022-11-30T00:18:17.758Z,5.60
2022-11-30T00:20:46.212Z,5.60
2022-11-30T00:23:14.415Z,5.60
2022-11-30T00:25:42.575Z,5.60
2022-11-30T00:28:10.652Z,5.50
2022-11-30T00:30:40.135Z,5.60
2022-11-30T00:33:08.467Z,5.60
2022-11-30T00:35:36.643Z,5.60
2022-11-30T00:38:04.692Z,5.50
2022-11-30T00:40:32.809Z,5.60
2022-11-30T00:43:00.884Z,5.60
2022-11-30T00:45:29.196Z,5.50
2022-11-30T00:47:58.643Z,5.60
2022-11-30T00:50:26.698Z,5.60
2022-11-30T00:52:55.149Z,5.60
2022-11-30T00:55:23.215Z,5.60
2022-11-30T00:57:51.408Z,5.60
2022-11-30T01:00:20.168Z,5.60
2022-11-30T01:02:48.273Z,5.60
2022-11-30T01:05:17.951Z,5.50
2022-11-30T01:07:46.116Z,5.60
2022-11-30T01:10:14.361Z,5.60
2022-11-30T01:12:42.392Z,5.50
2022-11-30T01:15:11.841Z,5.50
2022-11-30T01:17:39.920Z,5.50
2022-11-30T01:20:09.151Z,5.50
2022-11-30T01:22:38.667Z,5.50
2022-11-30T01:25:07.227Z,5.50
2022-11-30T01:27:35.521Z,5.40
2022-11-30T01:30:05.286Z,5.40
2022-11-30T01:32:33.460Z,5.40
2022-11-30T01:35:02.150Z,5.30
2022-11-30T01:37:32.337Z,5.30
2022-11-30T01:40:01.919Z,5.30
2022-11-30T01:42:30.083Z,5.30
2022-11-30T01:44:59.501Z,5.30
2022-11-30T01:47:31.592Z,5.20
2022-11-30T01:50:05.174Z,5.10
2022-11-30T01:52:36.723Z,5.10
2022-11-30T01:55:15.621Z,5.00
2022-11-30T01:57:48.344Z,5.00
2022-11-30T02:00:17.781Z,5.00
2022-11-30T02:02:56.440Z,4.90
2022-11-30T02:05:25.679Z,4.90
2022-11-30T02:07:54.488Z,4.80
2022-11-30T02:10:29.104Z,4.80
2022-11-30T02:13:27.696Z,4.80
2022-11-30T02:16:07.310Z,4.80
2022-11-30T02:18:43.183Z,4.80
2022-11-30T02:21:16.718Z,4.70
2022-11-30T02:24:21.834Z,4.70
2022-11-30T02:27:03.596Z,4.70
2022-11-30T02:29:35.766Z,4.70
2022-11-30T02:32:09.628Z,4.70
2022-11-30T02:34:39.032Z,4.70
2022-11-30T02:37:08.664Z,4.70
2022-11-30T02:39:37.022Z,4.70
2022-11-30T02:42:05.245Z,4.70
2022-11-30T02:44:35.009Z,4.70
2022-11-30T02:47:12.412Z,4.70
2022-11-30T02:49:48.016Z,4.70
2022-11-30T02:52:16.745Z,4.70
2022-11-30T02:54:45.080Z,4.80
2022-11-30T02:57:13.369Z,4.80
2022-11-30T02:59:42.967Z,4.80
2022-11-30T03:02:11.082Z,4.80
2022-11-30T03:04:39.138Z,4.80
2022-11-30T03:07:07.299Z,4.80
2022-11-30T03:09:35.449Z,4.80
2022-11-30T03:12:03.602Z,4.80
2022-11-30T03:14:31.698Z,4.80
2022-11-30T03:17:01.175Z,4.80
2022-11-30T03:19:29.273Z,4.80
2022-11-30T03:21:57.471Z,4.80
2022-11-30T03:24:25.616Z,4.70
2022-11-30T03:26:54.179Z,4.70
2022-11-30T03:29:22.461Z,4.70
2022-11-30T03:31:50.450Z,4.70
2022-11-30T03:34:19.956Z,4.70
2022-11-30T03:36:48.020Z,4.70
2022-11-30T03:39:16.127Z,4.60
2022-11-30T03:41:44.588Z,4.60
2022-11-30T03:44:12.631Z,4.60
2022-11-30T03:46:40.867Z,4.60
2022-11-30T03:49:09.172Z,4.60
2022-11-30T03:51:38.897Z,4.60
2022-11-30T03:54:07.039Z,4.60
2022-11-30T03:56:35.383Z,4.60
2022-11-30T03:59:03.446Z,4.60
2022-11-30T04:01:31.610Z,4.50
2022-11-30T04:03:59.872Z,4.50
2022-11-30T04:06:27.923Z,4.50
2022-11-30T04:08:57.638Z,4.50
2022-11-30T04:11:25.775Z,4.50
2022-11-30T04:14:19.266Z,4.50
2022-11-30T04:16:47.385Z,4.50
2022-11-30T04:19:15.393Z,4.50
2022-11-30T04:21:43.481Z,4.50
2022-11-30T04:24:12.911Z,4.40
2022-11-30T04:26:41.066Z,4.40
2022-11-30T04:29:09.394Z,4.50
2022-11-30T04:31:37.431Z,4.50
2022-11-30T04:34:05.658Z,4.50
2022-11-30T04:36:33.773Z,4.50
2022-11-30T04:39:05.783Z,4.50
2022-11-30T04:41:35.215Z,4.50
2022-11-30T04:44:03.305Z,4.40
2022-11-30T04:46:31.401Z,4.50
2022-11-30T04:48:59.466Z,4.40
2022-11-30T04:51:27.622Z,4.50
2022-11-30T04:53:55.759Z,4.50
2022-11-30T04:56:23.877Z,4.50
2022-11-30T04:58:53.923Z,4.40
2022-11-30T05:01:22.729Z,4.40
2022-11-30T05:03:50.966Z,4.40
2022-11-30T05:06:19.050Z,4.40
2022-11-30T05:08:47.235Z,4.40
2022-11-30T05:11:15.394Z,4.40
2022-11-30T05:13:43.559Z,4.40
2022-11-30T05:16:13.135Z,4.40
2022-11-30T05:18:41.182Z,4.40
2022-11-30T05:21:09.340Z,4.40
2022-11-30T05:23:37.412Z,4.40
2022-11-30T05:26:05.866Z,4.40
2022-11-30T05:28:33.884Z,4.40
2022-11-30T05:31:05.133Z,4.40
2022-11-30T05:33:35.195Z,4.40
2022-11-30T05:36:10.150Z,4.40
2022-11-30T05:38:38.891Z,4.40
2022-11-30T05:41:07.074Z,4.40
2022-11-30T05:43:35.223Z,4.40
2022-11-30T05:46:06.794Z,4.40
2022-11-30T05:48:36.820Z,4.30
2022-11-30T05:51:09.516Z,4.40
2022-11-30T05:53:38.048Z,4.40
2022-11-30T05:56:08.088Z,4.40
2022-11-30T05:58:36.592Z,4.40
2022-11-30T06:01:05.643Z,4.40
2022-11-30T06:03:36.672Z,4.40
2022-11-30T06:06:04.734Z,4.40
2022-11-30T06:08:32.921Z,4.40
2022-11-30T06:11:01.856Z,4.40
2022-11-30T06:13:31.680Z,4.40
2022-11-30T06:16:00.491Z,4.40
2022-11-30T06:18:29.812Z,4.40
2022-11-30T06:21:04.866Z,4.40
2022-11-30T06:23:33.691Z,4.40
2022-11-30T06:26:05.031Z,4.40
2022-11-30T06:28:33.170Z,4.40
2022-11-30T06:31:05.886Z,4.40
2022-11-30T06:33:34.422Z,4.40
2022-11-30T06:36:04.269Z,4.40
2022-11-30T06:38:32.523Z,4.40
2022-11-30T06:41:05.684Z,4.40
2022-11-30T06:43:35.209Z,4.40
2022-11-30T06:46:04.025Z,4.40
2022-11-30T06:48:32.541Z,4.40
2022-11-30T06:51:00.913Z,4.40
2022-11-30T06:53:30.444Z,4.40
2022-11-30T06:55:58.590Z,4.40
2022-11-30T06:58:26.741Z,4.40
2022-11-30T07:00:55.338Z,4.40
2022-11-30T07:03:23.635Z,4.40
2022-11-30T07:05:51.724Z,4.40
2022-11-30T07:08:19.866Z,4.40
2022-11-30T07:10:49.500Z,4.30
2022-11-30T07:13:18.984Z,4.40
2022-11-30T07:15:47.482Z,4.40
2022-11-30T07:18:15.588Z,4.40
2022-11-30T07:20:43.841Z,4.40
2022-11-30T07:23:29.486Z,4.40
2022-11-30T07:26:09.334Z,4.40
2022-11-30T07:28:38.740Z,4.40
2022-11-30T07:31:21.108Z,4.40
2022-11-30T07:33:50.457Z,4.40
2022-11-30T07:36:20.396Z,4.50
2022-11-30T07:38:48.920Z,4.50
2022-11-30T07:41:18.771Z,4.50
2022-11-30T07:43:46.872Z,4.50
2022-11-30T07:46:40.570Z,4.50
2022-11-30T07:49:11.036Z,4.50
2022-11-30T07:51:39.165Z,4.50
2022-11-30T07:54:07.377Z,4.50
2022-11-30T07:56:36.748Z,4.50
2022-11-30T07:59:05.256Z,4.60
2022-11-30T08:01:34.499Z,4.60
2022-11-30T08:04:03.863Z,4.60
2022-11-30T08:06:32.888Z,4.60
2022-11-30T08:09:02.625Z,4.60
2022-11-30T08:11:33.354Z,4.60
2022-11-30T08:14:03.332Z,4.70
2022-11-30T08:16:35.335Z,4.80
2022-11-30T08:19:03.486Z,4.80
2022-11-30T08:21:32.895Z,4.80
2022-11-30T08:24:01.316Z,4.90
2022-11-30T08:26:31.440Z,4.90
2022-11-30T08:29:02.129Z,5.00
2022-11-30T08:31:33.129Z,5.00
2022-11-30T08:34:04.625Z,5.10
2022-11-30T08:36:33.417Z,5.20
2022-11-30T08:39:04.882Z,5.30
2022-11-30T08:41:33.770Z,5.30
2022-11-30T08:44:02.457Z,5.40
2022-11-30T08:46:50.962Z,5.40
2022-11-30T08:52:18.211Z,5.40
2022-11-30T08:54:48.580Z,5.40
2022-11-30T08:57:17.838Z,5.40
2022-11-30T08:59:46.356Z,5.50
2022-11-30T09:02:18.598Z,5.50
2022-11-30T09:04:49.552Z,5.50
2022-11-30T09:07:18.492Z,5.50
2022-11-30T09:12:51.472Z,5.60
2022-11-30T09:15:19.537Z,5.60
2022-11-30T09:17:48.885Z,5.50
2022-11-30T09:20:17.353Z,5.60
2022-11-30T09:22:45.328Z,5.60
2022-11-30T09:25:13.387Z,5.70
2022-11-30T09:27:41.348Z,5.70
2022-11-30T09:30:10.562Z,5.80
2022-11-30T09:32:39.118Z,5.90
2022-11-30T09:35:12.787Z,6.00
2022-11-30T09:37:41.350Z,6.10
2022-11-30T09:40:11.670Z,6.20
2022-11-30T09:42:55.465Z,6.30
2022-11-30T09:45:29.455Z,6.30
2022-11-30T09:48:34.372Z,6.30
2022-11-30T09:51:12.056Z,6.30
2022-11-30T09:53:43.319Z,6.30
2022-11-30T09:56:21.959Z,6.40
2022-11-30T09:58:55.439Z,6.40
2022-11-30T10:01:23.855Z,6.40
2022-11-30T10:03:52.070Z,6.40
2022-11-30T10:06:26.311Z,6.40
2022-11-30T10:09:10.503Z,6.50
2022-11-30T10:11:49.068Z,6.60
2022-11-30T10:14:33.677Z,6.60
2022-11-30T10:17:09.158Z,6.70
2022-11-30T10:19:56.912Z,6.80
2022-11-30T10:22:33.273Z,6.90
2022-11-30T10:25:17.387Z,7.10
2022-11-30T10:27:51.181Z,7.30
2022-11-30T10:30:22.364Z,7.30
2022-11-30T10:32:53.670Z,7.50
2022-11-30T10:35:29.780Z,7.60
2022-11-30T10:38:01.296Z,7.60
2022-11-30T10:40:37.890Z,7.70
2022-11-30T10:43:15.601Z,7.70
2022-11-30T10:45:48.931Z,7.70
2022-11-30T10:48:22.468Z,7.60
2022-11-30T10:50:54.329Z,7.60
2022-11-30T10:53:24.369Z,7.50
2022-11-30T10:55:59.874Z,7.50
2022-11-30T10:58:31.541Z,7.50
2022-11-30T11:01:05.813Z,7.60
2022-11-30T11:03:34.527Z,7.50
2022-11-30T11:06:15.214Z,7.50
2022-11-30T11:08:46.871Z,7.40
2022-11-30T11:11:32.490Z,7.40
2022-11-30T11:14:17.045Z,7.40
2022-11-30T11:16:54.107Z,7.40
2022-11-30T11:19:41.538Z,7.40
2022-11-30T11:22:18.712Z,7.60
2022-11-30T11:24:49.336Z,7.60
2022-11-30T11:27:24.828Z,7.60
2022-11-30T11:30:05.925Z,7.70
2022-11-30T11:32:34.301Z,7.70
2022-11-30T11:35:02.630Z,7.70
2022-11-30T11:37:33.312Z,7.70
2022-11-30T11:40:07.184Z,7.60
2022-11-30T11:42:42.028Z,7.60
2022-11-30T11:45:18.294Z,7.50
2022-11-30T11:47:47.042Z,7.40
2022-11-30T11:51:04.877Z,7.30
2022-11-30T11:53:25.144Z,7.20
2022-11-30T11:55:59.754Z,7.30
2022-11-30T11:58:39.341Z,7.40
2022-11-30T12:01:39.083Z,7.60
2022-11-30T12:04:17.023Z,7.80
2022-11-30T12:06:47.727Z,8.00
2022-11-30T12:09:21.532Z,8.10
2022-11-30T12:11:51.018Z,8.20
2022-11-30T12:14:20.497Z,8.10
2022-11-30T12:17:05.365Z,8.10
2022-11-30T12:19:41.878Z,8.10
2022-11-30T12:22:25.667Z,8.20
2022-11-30T12:25:15.268Z,8.30
2022-11-30T12:27:54.015Z,8.40
2022-11-30T12:30:26.084Z,8.40
2022-11-30T12:33:08.112Z,8.30
2022-11-30T12:35:46.320Z,8.20
2022-11-30T12:38:24.255Z,8.20
2022-11-30T12:41:01.575Z,8.20
2022-11-30T12:43:41.768Z,8.30
2022-11-30T12:46:23.893Z,8.30
2022-11-30T12:49:07.391Z,8.40
2022-11-30T12:51:39.373Z,8.40
2022-11-30T12:54:17.104Z,8.40
2022-11-30T12:56:50.140Z,8.60
2022-11-30T12:59:29.384Z,8.60
2022-11-30T13:02:18.516Z,8.60
2022-11-30T13:05:15.258Z,8.50
2022-11-30T13:07:50.959Z,8.50
2022-11-30T13:10:27.660Z,8.40
2022-11-30T13:12:58.230Z,8.30
2022-11-30T13:15:31.053Z,8.30
2022-11-30T13:17:59.397Z,8.20
2022-11-30T13:20:36.196Z,8.20
2022-11-30T13:23:15.211Z,8.30
2022-11-30T13:26:18.186Z,8.30
2022-11-30T13:28:51.978Z,8.40
2022-11-30T13:31:26.104Z,8.40
2022-11-30T13:34:00.843Z,8.40
2022-11-30T13:36:36.810Z,8.40
2022-11-30T13:39:24.986Z,8.50
2022-11-30T13:42:24.521Z,8.60
2022-11-30T13:44:52.640Z,8.60
2022-11-30T13:47:30.321Z,8.60
2022-11-30T13:50:05.222Z,8.60
2022-11-30T13:53:19.682Z,8.50
2022-11-30T13:56:03.589Z,8.40
2022-11-30T13:58:33.034Z,8.30
2022-11-30T14:01:17.562Z,8.10
2022-11-30T14:04:25.646Z,8.00
2022-11-30T14:06:56.459Z,8.00
2022-11-30T14:10:01.427Z,7.90
2022-11-30T14:13:00.627Z,7.90
2022-11-30T14:15:46.622Z,7.80
2022-11-30T14:18:22.689Z,7.80
2022-11-30T14:20:55.288Z,7.60
2022-11-30T14:23:28.255Z,7.60
2022-11-30T14:25:58.681Z,7.50
2022-11-30T14:28:32.069Z,7.40
2022-11-30T14:31:01.122Z,7.40
2022-11-30T14:33:41.727Z,7.20
2022-11-30T14:36:11.360Z,7.10
2022-11-30T14:38:43.338Z,7.00
2022-11-30T14:41:23.028Z,6.80
2022-11-30T14:44:02.324Z,6.70
2022-11-30T14:46:31.224Z,6.60
2022-11-30T14:49:06.737Z,6.50
2022-11-30T14:51:35.203Z,6.30
2022-11-30T14:54:16.299Z,6.20
2022-11-30T14:56:48.495Z,6.00
2022-11-30T14:59:36.584Z,5.90
2022-11-30T15:02:08.279Z,5.70
2022-11-30T15:04:37.789Z,5.50
2022-11-30T15:07:05.784Z,5.30
2022-11-30T15:09:35.863Z,5.20
2022-11-30T15:12:04.228Z,5.10
2022-11-30T15:14:32.564Z,5.00
2022-11-30T15:17:00.594Z,5.00
2022-11-30T15:19:30.061Z,4.90
2022-11-30T15:21:59.792Z,4.80
2022-11-30T15:24:29.750Z,4.80
2022-11-30T15:27:10.391Z,4.80
2022-11-30T15:29:44.847Z,4.70
2022-11-30T15:32:20.287Z,4.70
2022-11-30T15:34:56.057Z,4.60
2022-11-30T15:37:30.967Z,4.60
2022-11-30T15:40:02.732Z,4.50
2022-11-30T15:42:39.778Z,4.50
2022-11-30T15:45:18.306Z,4.40
2022-11-30T15:47:46.488Z,4.30
2022-11-30T15:50:38.265Z,4.30
2022-11-30T15:53:25.740Z,4.20
2022-11-30T15:55:55.392Z,4.20
2022-11-30T15:58:30.987Z,4.20
2022-11-30T16:01:05.388Z,4.10
2022-11-30T16:03:34.890Z,4.20
2022-11-30T16:06:05.862Z,4.10
2022-11-30T16:08:34.045Z,4.10
2022-11-30T16:11:07.635Z,4.10
2022-11-30T16:13:38.725Z,4.00
2022-11-30T16:16:12.909Z,4.00
2022-11-30T16:18:41.437Z,4.10
2022-11-30T16:21:16.916Z,4.10
2022-11-30T16:23:46.156Z,4.10
2022-11-30T16:26:36.064Z,4.10
2022-11-30T16:29:05.497Z,4.10
2022-11-30T16:31:33.658Z,4.10
2022-11-30T16:34:01.628Z,4.10
2022-11-30T16:36:30.581Z,4.20
2022-11-30T16:38:58.595Z,4.20
2022-11-30T16:41:28.417Z,4.20
2022-11-30T16:43:58.403Z,4.20
2022-11-30T16:46:29.636Z,4.20
2022-11-30T16:48:57.908Z,4.20
2022-11-30T16:51:28.577Z,4.20
2022-11-30T16:53:57.013Z,4.20
2022-11-30T16:56:25.552Z,4.20
2022-11-30T16:58:54.125Z,4.20
2022-11-30T17:01:35.684Z,4.20
2022-11-30T17:04:11.073Z,4.20
2022-11-30T17:06:39.410Z,4.10
2022-11-30T17:09:07.590Z,4.10
2022-11-30T17:11:38.755Z,4.10
2022-11-30T17:14:07.163Z,4.10
2022-11-30T17:16:36.670Z,4.00
2022-11-30T17:19:05.328Z,4.10
2022-11-30T17:21:35.947Z,4.10
2022-11-30T17:24:06.174Z,4.10
2022-11-30T17:26:34.382Z,4.10
2022-11-30T17:29:02.563Z,4.00
2022-11-30T17:31:31.084Z,4.10
2022-11-30T17:34:00.533Z,4.00
2022-11-30T17:36:29.404Z,4.00
2022-11-30T17:38:57.561Z,4.00
2022-11-30T17:41:25.617Z,3.90
2022-11-30T17:43:53.693Z,3.90
2022-11-30T17:46:22.638Z,3.90
2022-11-30T17:48:51.317Z,3.90
2022-11-30T17:51:20.807Z,3.90
2022-11-30T17:53:48.945Z,3.90
2022-11-30T17:56:18.463Z,3.80
2022-11-30T17:58:50.689Z,3.80
2022-11-30T18:01:20.634Z,3.80
2022-11-30T18:03:49.236Z,3.80
2022-11-30T18:06:18.310Z,3.80
2022-11-30T18:08:47.744Z,3.80
2022-11-30T18:11:17.430Z,3.80
2022-11-30T18:13:45.829Z,3.80
2022-11-30T18:16:15.543Z,3.80
2022-11-30T18:18:47.691Z,3.80
2022-11-30T18:21:21.228Z,3.80
2022-11-30T18:23:51.199Z,3.80
2022-11-30T18:26:21.824Z,3.80
2022-11-30T18:28:53.877Z,3.70
2022-11-30T18:31:22.352Z,3.70
2022-11-30T18:33:56.151Z,3.70
2022-11-30T18:36:24.847Z,3.70
2022-11-30T18:38:54.546Z,3.70
2022-11-30T18:41:25.941Z,3.70
2022-11-30T18:43:54.668Z,3.70
2022-11-30T18:46:23.270Z,3.70
2022-11-30T18:48:52.985Z,3.80
2022-11-30T18:51:23.209Z,3.80
2022-11-30T18:53:57.675Z,3.80
2022-11-30T18:56:29.907Z,3.80
2022-11-30T18:58:59.027Z,3.80
2022-11-30T19:01:28.105Z,3.70
2022-11-30T19:03:59.635Z,3.70
2022-11-30T19:06:29.935Z,3.60
2022-11-30T19:08:58.335Z,3.40
2022-11-30T19:11:27.899Z,3.40
2022-11-30T19:14:00.692Z,3.30
2022-11-30T19:16:34.400Z,3.20
2022-11-30T19:19:04.304Z,3.20
2022-11-30T19:21:32.636Z,3.30
2022-11-30T19:24:00.740Z,3.30
2022-11-30T19:26:30.484Z,3.30
2022-11-30T19:28:58.996Z,3.40
2022-11-30T19:31:29.961Z,3.40
2022-11-30T19:33:58.076Z,3.50
2022-11-30T19:36:28.376Z,3.50
2022-11-30T19:38:58.517Z,3.50
2022-11-30T19:41:26.961Z,3.50
2022-11-30T19:44:02.853Z,3.50
2022-11-30T19:46:33.040Z,3.50
2022-11-30T19:49:02.462Z,3.40
2022-11-30T19:51:31.558Z,3.40
2022-11-30T19:54:00.285Z,3.20
2022-11-30T19:56:31.070Z,3.20
2022-11-30T19:59:05.276Z,3.20
2022-11-30T20:01:34.905Z,3.20
2022-11-30T20:04:04.562Z,3.30
2022-11-30T20:06:37.961Z,3.30
2022-11-30T20:09:07.254Z,3.30
2022-11-30T20:11:35.364Z,3.30
2022-11-30T20:14:05.418Z,3.30
2022-11-30T20:16:33.556Z,3.30
2022-11-30T20:19:03.153Z,3.30
2022-11-30T20:21:33.104Z,3.30
2022-11-30T20:24:03.335Z,3.30
2022-11-30T20:26:34.279Z,3.30
2022-11-30T20:29:05.284Z,3.30
2022-11-30T20:31:35.663Z,3.30
2022-11-30T20:34:03.922Z,3.30
2022-11-30T20:36:31.951Z,3.30
2022-11-30T20:39:00.448Z,3.30
2022-11-30T20:41:28.727Z,3.30
2022-11-30T20:43:56.867Z,3.30
2022-11-30T20:46:28.278Z,3.30
2022-11-30T20:48:57.621Z,3.20
2022-11-30T20:51:32.263Z,3.20
2022-11-30T20:56:53.981Z,3.10
2022-11-30T20:59:26.341Z,3.00
2022-11-30T21:01:57.334Z,2.90
2022-11-30T21:04:26.904Z,2.90
2022-11-30T21:06:55.279Z,2.90
2022-11-30T21:09:23.369Z,2.80
2022-11-30T21:11:51.370Z,2.90
2022-11-30T21:14:20.245Z,2.90
2022-11-30T21:16:48.238Z,2.90
2022-11-30T21:19:17.812Z,2.90
2022-11-30T21:21:45.815Z,2.90
2022-11-30T21:24:14.068Z,2.90
2022-11-30T21:26:43.990Z,2.90
2022-11-30T21:29:14.559Z,2.90
2022-11-30T21:31:42.784Z,2.90
2022-11-30T21:34:10.927Z,2.90
2022-11-30T21:36:40.650Z,2.90
2022-11-30T21:39:10.281Z,3.00
2022-11-30T21:41:40.243Z,3.00
2022-11-30T21:44:10.850Z,3.00
2022-11-30T21:46:38.983Z,3.00
2022-11-30T21:49:09.477Z,3.00
2022-11-30T21:51:38.021Z,3.00
2022-11-30T21:54:11.130Z,3.00
2022-11-30T21:56:40.798Z,3.00
2022-11-30T21:59:10.171Z,3.00
2022-11-30T22:01:40.531Z,3.00
2022-11-30T22:04:10.588Z,3.00
2022-11-30T22:06:40.536Z,3.10
2022-11-30T22:09:13.724Z,3.10
2022-11-30T22:11:43.123Z,3.00
2022-11-30T22:14:13.520Z,3.00
2022-11-30T22:16:41.652Z,2.90
2022-11-30T22:19:09.954Z,2.90
2022-11-30T22:21:38.189Z,2.80
2022-11-30T22:24:11.363Z,2.80
2022-11-30T22:26:40.728Z,2.80
2022-11-30T22:29:12.695Z,2.70
2022-11-30T22:31:42.344Z,2.70
2022-11-30T22:34:11.128Z,2.80
2022-11-30T22:36:41.282Z,2.80
2022-11-30T22:39:12.643Z,2.90
2022-11-30T22:41:41.673Z,2.90
2022-11-30T22:44:12.938Z,3.00
2022-11-30T22:46:41.228Z,3.00
2022-11-30T22:49:17.157Z,3.00
2022-11-30T22:51:48.139Z,3.00
2022-11-30T22:54:17.746Z,3.10
2022-11-30T22:56:46.446Z,3.00
2022-11-30T22:59:15.558Z,3.00
2022-11-30T23:01:45.379Z,3.00
2022-11-30T23:04:15.498Z,3.00
2022-11-30T23:06:44.458Z,2.90
2022-11-30T23:09:39.553Z,2.80
2022-11-30T23:12:07.893Z,2.80
2022-11-30T23:14:35.991Z,2.80
2022-11-30T23:17:04.076Z,2.70
2022-11-30T23:19:32.334Z,2.70
2022-11-30T23:22:00.320Z,2.70
2022-11-30T23:24:28.381Z,2.70
2022-11-30T23:26:57.726Z,2.60
2022-11-30T23:29:25.958Z,2.60
2022-11-30T23:31:54.067Z,2.50
2022-11-30T23:34:23.015Z,2.40
2022-11-30T23:36:52.040Z,2.40
2022-11-30T23:39:21.220Z,2.40
2022-11-30T23:41:49.772Z,2.50
2022-11-30T23:44:19.574Z,2.50
2022-11-30T23:46:48.005Z,2.50
2022-11-30T23:49:16.209Z,2.50
2022-11-30T23:51:44.609Z,2.50
2022-11-30T23:54:12.805Z,2.50
2022-11-30T23:56:40.761Z,2.60
2022-11-30T23:59:08.800Z,2.60
